Time;durP1;ratioP1;P1;durP2;ratioP2;P2;SDS_P1;SDS_P2;PMS_P1;PMS_P2;Temp;Humidity;BMP_temperature;BMP_pressure;BME280_temperature;BME280_humidity;BME280_pressure;Samples;Min_cycle;Max_cycle;Signal;HPM_P1;HPM_P2
2022/07/26 00:00:53;;;;;;;3.25;1.45;;;22.40;83.00;;;;;;2126268;27;20367;-70
2022/07/26 00:01:54;;;;;;;5.55;1.88;;;22.40;82.00;;;;;;2126333;27;20019;-70
2022/07/26 00:02:54;;;;;;;4.35;1.35;;;22.50;83.30;;;;;;2120957;27;20164;-70
2022/07/26 00:03:55;;;;;;;5.03;1.52;;;22.40;83.20;;;;;;2121053;27;20019;-70
2022/07/26 00:04:56;;;;;;;3.03;1.50;;;22.40;83.30;;;;;;2115793;27;20088;-70
2022/07/26 00:05:57;;;;;;;2.25;1.33;;;22.40;83.80;;;;;;2115921;27;20024;-70
2022/07/26 00:06:58;;;;;;;2.22;1.08;;;22.40;84.20;;;;;;2129061;27;20463;-69
2022/07/26 00:08:09;;;;;;;2.22;1.20;;;22.40;84.20;;;;;;2126392;27;20434;-69
2022/07/26 00:09:10;;;;;;;1.48;1.10;;;22.30;83.30;;;;;;2125911;27;20015;-70
2022/07/26 00:10:12;;;;;;;3.92;1.33;;;22.40;83.80;;;;;;2127055;27;20027;-69
2022/07/26 00:11:13;;;;;;;2.78;1.35;;;22.30;84.20;;;;;;2125533;27;20027;-69
2022/07/26 00:12:13;;;;;;;3.25;1.42;;;22.30;84.80;;;;;;2126822;27;20014;-70
2022/07/26 00:13:16;;;;;;;4.80;1.70;;;22.30;85.50;;;;;;2126780;27;20308;-70
2022/07/26 00:14:16;;;;;;;4.00;1.65;;;22.30;84.80;;;;;;2126881;27;20018;-70
2022/07/26 00:15:17;;;;;;;3.15;1.17;;;22.30;84.90;;;;;;2125784;27;20067;-70
2022/07/26 00:16:19;;;;;;;3.35;1.08;;;22.30;84.90;;;;;;2125330;27;20018;-70
2022/07/26 00:17:20;;;;;;;5.43;1.33;;;22.30;85.50;;;;;;2125737;27;20019;-69
2022/07/26 00:18:20;;;;;;;2.40;1.20;;;22.30;84.80;;;;;;2127297;27;20026;-69
2022/07/26 00:19:21;;;;;;;4.28;1.23;;;22.30;84.90;;;;;;2127868;27;20566;-69
2022/07/26 00:20:22;;;;;;;3.67;1.48;;;22.30;85.70;;;;;;2125085;27;20023;-70
2022/07/26 00:21:23;;;;;;;4.97;1.52;;;22.30;86.20;;;;;;2127109;27;20023;-69
2022/07/26 00:22:32;;;;;;;4.70;1.30;;;22.30;86.50;;;;;;2126281;27;20019;-69
2022/07/26 00:23:34;;;;;;;2.80;1.10;;;22.20;87.00;;;;;;2127942;27;20103;-69
2022/07/26 00:24:34;;;;;;;3.75;1.20;;;22.20;87.40;;;;;;2126138;27;20740;-70
2022/07/26 00:25:35;;;;;;;3.63;1.40;;;22.20;86.00;;;;;;2126116;27;20402;-70
2022/07/26 00:26:36;;;;;;;4.43;1.52;;;22.20;86.50;;;;;;2125945;27;20527;-69
2022/07/26 00:27:37;;;;;;;4.40;1.45;;;22.20;87.10;;;;;;2125479;27;20522;-69
2022/07/26 00:28:37;;;;;;;2.30;1.23;;;22.10;87.30;;;;;;2126713;27;20030;-69
2022/07/26 00:29:38;;;;;;;2.60;1.40;;;22.10;88.00;;;;;;2126062;27;20018;-69
2022/07/26 00:30:39;;;;;;;3.33;1.05;;;22.10;88.00;;;;;;2126862;27;20027;-69
2022/07/26 00:31:39;;;;;;;3.60;1.60;;;22.10;88.90;;;;;;2127399;27;20050;-69
2022/07/26 00:32:40;;;;;;;7.25;1.30;;;22.20;87.90;;;;;;2128240;27;20367;-69
2022/07/26 00:33:40;;;;;;;5.57;1.65;;;22.10;88.10;;;;;;2127452;27;20084;-70
2022/07/26 00:34:41;;;;;;;3.70;1.30;;;22.10;88.80;;;;;;2127624;27;20087;-70
2022/07/26 00:35:42;;;;;;;5.18;1.50;;;22.10;88.50;;;;;;2124256;27;20074;-70
2022/07/26 00:36:43;;;;;;;7.10;1.38;;;22.10;88.90;;;;;;2126225;27;20025;-70
2022/07/26 00:37:43;;;;;;;2.95;1.00;;;22.10;89.20;;;;;;2128272;27;20011;-70
2022/07/26 00:38:44;;;;;;;5.55;1.40;;;22.00;89.30;;;;;;2128779;27;20078;-70
2022/07/26 00:39:45;;;;;;;5.47;1.48;;;22.00;89.80;;;;;;2126015;27;20037;-70
2022/07/26 00:40:45;;;;;;;3.40;1.17;;;22.00;90.10;;;;;;2128642;27;20034;-70
2022/07/26 00:41:46;;;;;;;3.15;1.42;;;22.00;89.20;;;;;;2128021;27;20022;-69
2022/07/26 00:42:46;;;;;;;3.88;1.40;;;22.00;90.10;;;;;;2129173;27;20084;-69
2022/07/26 00:43:55;;;;;;;5.88;1.50;;;22.00;89.90;;;;;;2127778;27;20025;-69
2022/07/26 00:44:55;;;;;;;4.50;1.48;;;21.90;90.70;;;;;;2127000;27;20023;-69
2022/07/26 00:45:57;;;;;;;8.18;1.63;;;21.90;90.50;;;;;;2126114;27;20019;-69
2022/07/26 00:46:57;;;;;;;5.50;1.50;;;21.90;90.70;;;;;;2124313;27;20046;-69
2022/07/26 00:47:58;;;;;;;4.50;1.42;;;21.90;90.50;;;;;;2126823;27;21346;-69
2022/07/26 00:48:59;;;;;;;9.45;1.73;;;21.90;90.70;;;;;;2128220;27;20015;-69
2022/07/26 00:50:00;;;;;;;6.60;1.90;;;21.80;90.80;;;;;;2125478;27;20094;-70
2022/07/26 00:51:00;;;;;;;4.40;1.70;;;21.90;91.10;;;;;;2129135;27;20018;-70
2022/07/26 00:52:03;;;;;;;5.47;1.63;;;21.80;90.60;;;;;;2127254;27;20098;-69
2022/07/26 00:53:04;;;;;;;5.93;2.00;;;21.80;91.20;;;;;;2127084;27;20025;-69
2022/07/26 00:54:05;;;;;;;4.97;1.40;;;21.80;91.40;;;;;;2126465;27;20098;-69
2022/07/26 00:55:06;;;;;;;4.30;1.85;;;21.80;90.70;;;;;;2127939;27;20015;-69
2022/07/26 00:56:07;;;;;;;4.75;1.70;;;21.80;90.80;;;;;;2126655;27;20079;-69
2022/07/26 00:57:08;;;;;;;2.60;1.38;;;21.80;91.30;;;;;;2126780;27;20053;-69
2022/07/26 00:58:09;;;;;;;4.20;1.65;;;21.80;90.80;;;;;;2125312;27;20540;-69
2022/07/26 00:59:09;;;;;;;4.28;1.60;;;21.80;91.10;;;;;;2128424;27;20485;-69
2022/07/26 01:00:18;;;;;;;3.78;1.70;;;21.80;91.70;;;;;;2129082;27;20024;-69
2022/07/26 01:01:19;;;;;;;3.83;1.92;;;21.80;91.40;;;;;;2123864;27;20547;-69
2022/07/26 01:02:20;;;;;;;4.72;1.83;;;21.80;91.40;;;;;;2123387;27;20457;-70
2022/07/26 01:03:20;;;;;;;5.03;1.83;;;21.70;92.00;;;;;;2129672;27;20034;-70
2022/07/26 01:04:21;;;;;;;3.35;1.60;;;21.70;92.40;;;;;;2127043;27;20035;-70
2022/07/26 01:05:22;;;;;;;4.85;1.83;;;21.70;91.80;;;;;;2125718;27;20020;-70
2022/07/26 01:06:23;;;;;;;7.85;1.92;;;21.70;91.60;;;;;;2126995;27;20389;-70
2022/07/26 01:07:24;;;;;;;3.25;1.75;;;21.70;92.20;;;;;;2130383;27;20066;-70
2022/07/26 01:08:24;;;;;;;4.90;1.70;;;21.70;92.60;;;;;;2127412;27;20023;-70
2022/07/26 01:09:25;;;;;;;2.83;1.50;;;21.70;92.70;;;;;;2124268;27;20026;-70
2022/07/26 01:10:25;;;;;;;3.03;1.48;;;21.70;92.20;;;;;;2127811;27;20527;-70
2022/07/26 01:11:26;;;;;;;2.25;1.38;;;21.60;92.10;;;;;;2125674;27;20008;-70
2022/07/26 01:12:27;;;;;;;5.32;1.42;;;21.60;91.80;;;;;;2126352;27;20048;-70
2022/07/26 01:13:27;;;;;;;4.68;2.00;;;21.60;92.10;;;;;;2118341;27;20545;-70
2022/07/26 01:14:28;;;;;;;4.95;1.90;;;21.60;93.00;;;;;;2117132;27;20012;-70
2022/07/26 01:15:29;;;;;;;3.65;1.55;;;21.60;93.10;;;;;;2130117;27;20034;-70
2022/07/26 01:16:30;;;;;;;6.65;2.28;;;21.60;92.40;;;;;;2126254;27;20429;-70
2022/07/26 01:17:30;;;;;;;6.32;2.10;;;21.50;93.30;;;;;;2124444;27;20023;-70
2022/07/26 01:18:31;;;;;;;5.30;2.13;;;21.50;93.70;;;;;;2125924;27;20035;-70
2022/07/26 01:19:31;;;;;;;7.13;2.78;;;21.50;93.80;;;;;;2125593;27;20046;-70
2022/07/26 01:20:32;;;;;;;3.10;1.67;;;21.40;94.10;;;;;;2127981;27;20125;-70
2022/07/26 01:21:52;;;;;;;3.75;2.08;;;21.40;93.90;;;;;;2130782;27;20126;-70
2022/07/26 01:22:53;;;;;;;5.20;1.98;;;21.40;94.60;;;;;;2127334;27;20093;-70
2022/07/26 01:23:53;;;;;;;6.35;1.63;;;21.40;94.40;;;;;;2126046;27;20509;-70
2022/07/26 01:24:54;;;;;;;2.85;1.70;;;21.40;95.30;;;;;;2124383;27;20026;-70
2022/07/26 01:25:55;;;;;;;4.13;1.75;;;21.40;95.40;;;;;;2128920;27;20455;-70
2022/07/26 01:26:55;;;;;;;5.32;1.88;;;21.30;95.60;;;;;;2130203;27;20492;-70
2022/07/26 01:27:56;;;;;;;5.40;1.90;;;21.30;95.30;;;;;;2123640;27;20152;-70
2022/07/26 01:28:57;;;;;;;3.97;1.80;;;21.30;95.70;;;;;;2125550;27;20554;-70
2022/07/26 01:29:58;;;;;;;5.88;1.65;;;21.30;96.40;;;;;;2128448;27;20527;-70
2022/07/26 01:30:58;;;;;;;4.43;2.08;;;21.30;95.70;;;;;;2127278;27;20019;-70
2022/07/26 01:32:00;;;;;;;4.75;1.63;;;21.30;96.10;;;;;;2125685;27;20019;-70
2022/07/26 01:33:00;;;;;;;3.60;1.50;;;21.30;96.10;;;;;;2127665;27;20037;-70
2022/07/26 01:34:01;;;;;;;4.85;1.55;;;21.30;96.60;;;;;;2129526;27;20018;-70
2022/07/26 01:35:03;;;;;;;4.65;1.52;;;21.30;97.30;;;;;;2129968;27;20094;-70
2022/07/26 01:36:04;;;;;;;5.43;1.70;;;21.20;97.00;;;;;;2126016;27;20059;-70
2022/07/26 01:37:05;;;;;;;4.75;1.73;;;21.20;97.40;;;;;;2126592;27;20254;-70
2022/07/26 01:38:05;;;;;;;5.78;1.70;;;21.20;98.20;;;;;;2128863;27;20070;-70
2022/07/26 01:39:06;;;;;;;5.45;1.73;;;21.20;98.40;;;;;;2127543;27;20071;-70
2022/07/26 01:40:08;;;;;;;9.40;1.88;;;21.20;98.60;;;;;;2128275;27;20019;-70
2022/07/26 01:41:09;;;;;;;6.82;1.90;;;21.20;98.90;;;;;;2118683;27;20418;-70
2022/07/26 01:42:10;;;;;;;3.47;1.60;;;21.20;99.30;;;;;;2117242;27;20051;-70
2022/07/26 01:43:10;;;;;;;6.00;1.80;;;21.20;99.30;;;;;;2128865;27;20500;-70
2022/07/26 01:44:11;;;;;;;6.82;1.80;;;21.20;99.60;;;;;;2129808;27;20327;-70
2022/07/26 01:45:11;;;;;;;4.90;1.80;;;21.10;99.50;;;;;;2127002;27;20152;-70
2022/07/26 01:46:12;;;;;;;4.05;1.77;;;21.10;99.90;;;;;;2127483;27;20460;-70
2022/07/26 01:47:13;;;;;;;2.72;1.52;;;21.10;99.90;;;;;;2126067;27;20042;-70
2022/07/26 01:48:13;;;;;;;5.93;2.20;;;21.10;99.90;;;;;;2127816;27;20534;-70
2022/07/26 01:49:14;;;;;;;4.90;1.70;;;21.10;99.90;;;;;;2126751;27;20018;-70
2022/07/26 01:50:16;;;;;;;5.32;2.22;;;21.10;99.90;;;;;;2126082;27;20029;-70
2022/07/26 01:51:17;;;;;;;5.53;1.85;;;21.10;99.90;;;;;;2126375;27;20126;-70
2022/07/26 01:52:17;;;;;;;3.38;1.23;;;21.10;99.90;;;;;;2130372;27;20015;-70
2022/07/26 01:53:18;;;;;;;4.43;1.98;;;21.10;99.90;;;;;;2127952;27;20059;-70
2022/07/26 01:54:18;;;;;;;5.53;1.80;;;21.10;99.90;;;;;;2127913;27;20050;-70
2022/07/26 01:55:19;;;;;;;3.05;1.80;;;21.10;99.90;;;;;;2127312;27;20015;-70
2022/07/26 01:56:20;;;;;;;5.97;1.67;;;21.10;99.90;;;;;;2124415;27;20106;-70
2022/07/26 01:57:20;;;;;;;4.82;1.67;;;21.10;99.90;;;;;;2125077;27;20030;-70
2022/07/26 01:58:21;;;;;;;5.90;2.33;;;21.10;99.90;;;;;;2127755;27;20028;-70
2022/07/26 01:59:21;;;;;;;5.88;1.88;;;21.10;99.90;;;;;;2128435;27;20389;-70
2022/07/26 02:00:22;;;;;;;8.45;1.98;;;21.10;99.90;;;;;;2129221;27;20027;-70
2022/07/26 02:01:23;;;;;;;5.25;1.90;;;21.20;99.90;;;;;;2127659;27;20025;-70
2022/07/26 02:02:24;;;;;;;4.88;1.90;;;21.20;99.90;;;;;;2128425;27;20019;-70
2022/07/26 02:03:24;;;;;;;4.32;1.70;;;21.20;99.90;;;;;;2128156;27;20071;-70
2022/07/26 02:05:44;;;;;;;4.15;1.88;;;21.20;99.90;;;;;;2126738;27;20023;-70
2022/07/26 02:06:44;;;;;;;8.68;2.00;;;21.20;99.90;;;;;;2127231;27;20055;-70
2022/07/26 02:07:45;;;;;;;5.80;2.00;;;21.20;99.90;;;;;;2128037;27;20027;-70
2022/07/26 02:08:46;;;;;;;5.28;1.88;;;21.20;99.90;;;;;;2126963;27;20340;-70
2022/07/26 02:09:46;;;;;;;5.82;2.17;;;21.20;99.90;;;;;;2126130;27;20041;-70
2022/07/26 02:11:02;;;;;;;7.38;2.45;;;21.20;99.90;;;;;;2123095;27;20027;-70
2022/07/26 02:12:03;;;;;;;7.82;1.95;;;21.20;99.90;;;;;;2126475;27;20015;-70
2022/07/26 02:13:03;;;;;;;4.65;2.55;;;21.20;99.90;;;;;;2126079;27;20027;-70
2022/07/26 02:14:04;;;;;;;7.20;2.17;;;21.20;99.90;;;;;;2126414;27;20033;-70
2022/07/26 02:15:06;;;;;;;5.07;2.17;;;21.20;99.90;;;;;;2127803;27;20015;-70
2022/07/26 02:16:10;;;;;;;5.60;1.98;;;21.20;99.90;;;;;;2125179;27;20023;-70
2022/07/26 02:17:11;;;;;;;5.32;2.28;;;21.20;99.90;;;;;;2124953;27;20102;-70
2022/07/26 02:18:11;;;;;;;5.03;2.13;;;21.20;99.90;;;;;;2126833;27;20019;-70
2022/07/26 02:19:12;;;;;;;5.15;1.95;;;21.20;99.90;;;;;;2123472;27;20238;-70
2022/07/26 02:20:15;;;;;;;5.80;1.92;;;21.20;99.90;;;;;;2126968;27;20039;-69
2022/07/26 02:21:16;;;;;;;7.40;2.55;;;21.20;99.90;;;;;;2127237;27;20019;-70
2022/07/26 02:22:18;;;;;;;4.55;2.20;;;21.30;99.90;;;;;;2127075;27;20019;-70
2022/07/26 02:23:20;;;;;;;8.65;2.15;;;21.30;99.90;;;;;;2127633;27;20427;-70
2022/07/26 02:24:20;;;;;;;5.38;2.20;;;21.30;99.90;;;;;;2127388;27;20020;-70
2022/07/26 02:25:21;;;;;;;8.50;2.65;;;21.20;99.90;;;;;;2126267;27;20295;-70
2022/07/26 02:26:21;;;;;;;6.13;1.85;;;21.20;99.90;;;;;;2124856;27;20030;-70
2022/07/26 02:27:22;;;;;;;8.13;2.50;;;21.20;99.90;;;;;;2125087;27;20026;-70
2022/07/26 02:28:23;;;;;;;3.88;2.20;;;21.20;99.90;;;;;;2125255;27;20413;-70
2022/07/26 02:29:24;;;;;;;9.13;2.58;;;21.20;99.90;;;;;;2127716;27;20015;-70
2022/07/26 02:30:24;;;;;;;9.43;2.83;;;21.10;99.90;;;;;;2126312;27;20463;-70
2022/07/26 02:31:25;;;;;;;5.05;2.33;;;21.20;99.90;;;;;;2126091;27;20431;-70
2022/07/26 02:32:26;;;;;;;4.43;1.95;;;21.10;99.90;;;;;;2126737;27;20020;-70
2022/07/26 02:33:26;;;;;;;7.00;2.30;;;21.10;99.90;;;;;;2126170;27;20113;-70
2022/07/26 02:34:27;;;;;;;7.97;2.35;;;21.10;99.90;;;;;;2127319;27;20011;-70
2022/07/26 02:35:28;;;;;;;8.63;2.60;;;21.20;99.90;;;;;;2128014;27;20450;-70
2022/07/26 02:36:29;;;;;;;5.47;2.20;;;21.10;99.90;;;;;;2126015;27;20020;-70
2022/07/26 02:37:29;;;;;;;7.20;2.70;;;21.10;99.90;;;;;;2126729;27;20023;-70
2022/07/26 02:38:30;;;;;;;7.97;2.72;;;21.10;99.90;;;;;;2125266;27;20027;-70
2022/07/26 02:39:30;;;;;;;7.53;2.53;;;21.10;99.90;;;;;;2125829;27;20031;-70
2022/07/26 02:40:32;;;;;;;5.90;2.85;;;21.10;99.90;;;;;;2125681;27;20018;-70
2022/07/26 02:41:33;;;;;;;7.38;2.55;;;21.20;99.90;;;;;;2126997;27;20386;-70
2022/07/26 02:42:33;;;;;;;5.68;2.65;;;21.20;99.90;;;;;;2126751;27;20102;-70
2022/07/26 02:43:34;;;;;;;7.70;2.70;;;21.10;99.90;;;;;;2127000;27;20029;-70
2022/07/26 02:44:35;;;;;;;6.78;2.25;;;21.10;99.90;;;;;;2127601;27;20047;-70
2022/07/26 02:45:36;;;;;;;6.07;2.20;;;21.10;99.90;;;;;;2125959;27;20026;-70
2022/07/26 02:46:37;;;;;;;7.30;2.30;;;21.20;99.90;;;;;;2127630;27;20027;-70
2022/07/26 02:47:48;;;;;;;7.80;2.42;;;21.10;99.90;;;;;;2127163;27;20023;-70
2022/07/26 02:48:49;;;;;;;7.07;2.17;;;21.10;99.90;;;;;;2129220;27;20328;-70
2022/07/26 02:49:50;;;;;;;4.75;2.65;;;21.10;99.90;;;;;;2127690;27;20250;-70
2022/07/26 02:50:50;;;;;;;8.35;2.45;;;21.10;99.90;;;;;;2128395;27;20359;-70
2022/07/26 02:51:51;;;;;;;5.63;2.42;;;21.10;99.90;;;;;;2130117;27;20435;-70
2022/07/26 02:52:52;;;;;;;11.00;2.92;;;21.10;99.90;;;;;;2128319;27;20007;-70
2022/07/26 02:53:53;;;;;;;7.43;2.60;;;21.10;99.90;;;;;;2125687;27;20016;-70
2022/07/26 02:54:54;;;;;;;9.77;3.05;;;21.10;99.90;;;;;;2129045;27;20320;-70
2022/07/26 02:55:55;;;;;;;7.38;2.42;;;21.10;99.90;;;;;;2126107;27;20015;-70
2022/07/26 02:56:55;;;;;;;6.95;2.75;;;21.20;99.90;;;;;;2127750;27;20011;-70
2022/07/26 02:57:56;;;;;;;6.25;2.70;;;21.20;99.90;;;;;;2126733;27;20043;-70
2022/07/26 02:58:57;;;;;;;7.43;2.47;;;21.20;99.90;;;;;;2129057;27;20033;-70
2022/07/26 02:59:58;;;;;;;8.98;2.63;;;21.20;99.90;;;;;;2128032;27;20347;-70
2022/07/26 03:00:58;;;;;;;7.20;2.33;;;21.20;99.90;;;;;;2129007;27;20015;-70
2022/07/26 03:01:59;;;;;;;4.32;2.10;;;21.20;99.90;;;;;;2130261;27;20011;-70
2022/07/26 03:02:59;;;;;;;9.38;3.08;;;21.20;99.90;;;;;;2126333;27;20439;-70
2022/07/26 03:04:01;;;;;;;6.45;2.80;;;21.20;99.90;;;;;;2129917;27;20054;-70
2022/07/26 03:05:04;;;;;;;8.23;2.60;;;21.20;99.90;;;;;;2126622;27;20288;-70
2022/07/26 03:06:04;;;;;;;5.57;2.20;;;21.20;99.90;;;;;;2127878;27;20098;-70
2022/07/26 03:07:05;;;;;;;9.65;2.65;;;21.20;99.90;;;;;;2127592;27;20015;-70
2022/07/26 03:08:06;;;;;;;5.32;2.20;;;21.20;99.90;;;;;;2128227;27;20421;-70
2022/07/26 03:09:07;;;;;;;7.90;2.85;;;21.10;99.90;;;;;;2128220;27;20350;-70
2022/07/26 03:10:08;;;;;;;4.90;1.92;;;21.10;99.90;;;;;;2128257;27;20041;-70
2022/07/26 03:11:08;;;;;;;6.15;2.45;;;21.20;99.90;;;;;;2125422;27;20067;-70
2022/07/26 03:12:09;;;;;;;5.38;2.50;;;21.20;99.90;;;;;;2126829;27;20036;-70
2022/07/26 03:13:10;;;;;;;7.47;2.42;;;21.20;99.90;;;;;;2125116;27;20496;-70
2022/07/26 03:14:11;;;;;;;7.28;2.55;;;21.20;99.90;;;;;;2128648;27;20030;-70
2022/07/26 03:15:11;;;;;;;8.48;2.95;;;21.20;99.90;;;;;;2127908;27;20385;-70
2022/07/26 03:16:12;;;;;;;5.28;2.20;;;21.20;99.90;;;;;;2127307;27;20023;-70
2022/07/26 03:17:12;;;;;;;5.03;2.10;;;21.20;99.90;;;;;;2128406;27;20019;-70
2022/07/26 03:18:13;;;;;;;6.72;2.53;;;21.20;99.90;;;;;;2128741;27;20019;-70
2022/07/26 03:19:14;;;;;;;6.40;2.17;;;21.20;99.90;;;;;;2128613;27;20094;-70
2022/07/26 03:20:14;;;;;;;8.00;2.10;;;21.20;99.90;;;;;;2125456;27;20023;-70
2022/07/26 03:21:15;;;;;;;5.50;2.08;;;21.20;99.90;;;;;;2127869;27;20011;-70
2022/07/26 03:22:16;;;;;;;5.97;2.47;;;21.20;99.90;;;;;;2126045;27;20055;-70
2022/07/26 03:23:16;;;;;;;7.05;1.92;;;21.20;99.90;;;;;;2127066;27;20011;-70
2022/07/26 03:24:17;;;;;;;7.38;2.50;;;21.20;99.90;;;;;;2130089;27;20423;-70
2022/07/26 03:25:17;;;;;;;8.18;2.65;;;21.20;99.90;;;;;;2127796;27;20034;-70
2022/07/26 03:26:19;;;;;;;10.85;2.47;;;21.20;99.90;;;;;;2127963;27;20023;-70
2022/07/26 03:27:19;;;;;;;8.25;2.70;;;21.20;99.90;;;;;;2128868;27;20031;-70
2022/07/26 03:28:20;;;;;;;6.07;2.08;;;21.20;99.90;;;;;;2127824;27;20062;-70
2022/07/26 03:29:20;;;;;;;5.05;2.25;;;21.20;99.90;;;;;;2124767;27;20098;-70
2022/07/26 03:30:22;;;;;;;6.32;2.63;;;21.20;99.90;;;;;;2125491;27;20073;-70
2022/07/26 03:31:24;;;;;;;6.75;2.63;;;21.20;99.90;;;;;;2127378;27;20355;-70
2022/07/26 03:32:25;;;;;;;6.13;2.45;;;21.20;99.90;;;;;;2128167;27;20022;-70
2022/07/26 03:33:26;;;;;;;6.05;2.25;;;21.20;99.90;;;;;;2126486;27;20015;-70
2022/07/26 03:34:26;;;;;;;8.80;2.45;;;21.20;99.90;;;;;;2130476;27;20526;-70
2022/07/26 03:35:27;;;;;;;8.40;3.00;;;21.20;99.90;;;;;;2127196;27;20051;-70
2022/07/26 03:36:28;;;;;;;8.25;2.55;;;21.20;99.90;;;;;;2129312;27;20030;-70
2022/07/26 03:37:29;;;;;;;6.43;1.85;;;21.20;99.90;;;;;;2125049;27;20174;-70
2022/07/26 03:38:30;;;;;;;5.95;2.22;;;21.20;99.90;;;;;;2127386;27;20083;-70
2022/07/26 03:39:30;;;;;;;7.40;2.60;;;21.20;99.90;;;;;;2129392;27;20027;-70
2022/07/26 03:40:31;;;;;;;5.13;2.10;;;21.20;99.90;;;;;;2126932;27;20031;-70
2022/07/26 03:41:31;;;;;;;5.82;2.38;;;21.20;99.90;;;;;;2125715;27;20023;-70
2022/07/26 03:42:32;;;;;;;6.68;2.53;;;21.20;99.90;;;;;;2129275;27;20022;-69
2022/07/26 03:43:33;;;;;;;7.32;2.35;;;21.20;99.90;;;;;;2127710;27;20030;-70
2022/07/26 03:44:33;;;;;;;10.70;2.60;;;21.20;99.90;;;;;;2130463;27;20386;-70
2022/07/26 03:45:34;;;;;;;7.18;2.45;;;21.20;99.90;;;;;;2127820;27;20030;-70
2022/07/26 03:46:35;;;;;;;6.13;2.67;;;21.30;99.90;;;;;;2127467;27;20100;-70
2022/07/26 03:47:36;;;;;;;4.97;2.25;;;21.20;99.90;;;;;;2130116;27;20031;-70
2022/07/26 03:48:36;;;;;;;9.52;2.75;;;21.30;99.90;;;;;;2127165;27;20031;-70
2022/07/26 03:49:37;;;;;;;6.25;2.45;;;21.20;99.90;;;;;;2127507;27;20019;-70
2022/07/26 03:50:38;;;;;;;6.20;2.42;;;21.20;99.90;;;;;;2128643;27;20014;-70
2022/07/26 03:51:38;;;;;;;9.85;2.58;;;21.20;99.90;;;;;;2127877;27;20095;-70
2022/07/26 03:52:40;;;;;;;5.88;2.90;;;21.20;99.90;;;;;;2127911;27;20015;-70
2022/07/26 03:53:40;;;;;;;6.20;2.58;;;21.20;99.90;;;;;;2129965;27;20019;-70
2022/07/26 03:54:41;;;;;;;7.65;2.92;;;21.20;99.90;;;;;;2127098;27;20015;-70
2022/07/26 03:57:01;;;;;;;9.32;2.90;;;21.20;99.90;;;;;;2129231;27;20385;-70
2022/07/26 03:58:02;;;;;;;7.25;2.25;;;21.20;99.90;;;;;;2127138;27;20065;-69
2022/07/26 03:59:04;;;;;;;7.35;2.60;;;21.20;99.90;;;;;;2116667;27;20040;-69
2022/07/26 04:00:05;;;;;;;8.85;2.72;;;21.10;99.90;;;;;;2121041;27;20023;-69
2022/07/26 04:01:06;;;;;;;7.93;2.90;;;21.10;99.90;;;;;;2127194;27;20014;-69
2022/07/26 04:02:06;;;;;;;13.85;3.20;;;21.10;99.90;;;;;;2116708;27;20020;-69
2022/07/26 04:03:07;;;;;;;8.07;2.78;;;21.10;99.90;;;;;;2119101;27;20387;-69
2022/07/26 04:04:09;;;;;;;7.40;2.80;;;21.00;99.90;;;;;;2127368;27;20040;-70
2022/07/26 04:05:10;;;;;;;8.30;2.58;;;21.00;99.90;;;;;;2128705;27;20432;-70
2022/07/26 04:06:10;;;;;;;9.55;3.10;;;21.00;99.90;;;;;;2128259;27;20022;-70
2022/07/26 04:07:11;;;;;;;4.82;2.90;;;21.00;99.90;;;;;;2128820;27;20019;-70
2022/07/26 04:08:11;;;;;;;7.38;2.50;;;21.00;99.90;;;;;;2128507;27;20023;-70
2022/07/26 04:09:13;;;;;;;7.15;2.72;;;21.00;99.90;;;;;;2129545;27;20012;-70
2022/07/26 04:10:15;;;;;;;7.15;2.78;;;21.00;99.90;;;;;;2130599;27;20019;-70
2022/07/26 04:11:16;;;;;;;9.00;3.13;;;21.00;99.90;;;;;;2128574;27;20019;-70
2022/07/26 04:12:16;;;;;;;9.32;3.25;;;21.00;99.90;;;;;;2127464;27;20467;-70
2022/07/26 04:13:18;;;;;;;9.73;3.65;;;21.00;99.90;;;;;;2129832;27;20059;-70
2022/07/26 04:14:20;;;;;;;11.07;3.95;;;20.90;99.90;;;;;;2126325;27;20034;-70
2022/07/26 04:15:20;;;;;;;6.05;3.25;;;20.90;99.90;;;;;;2129293;27;20680;-70
2022/07/26 04:16:21;;;;;;;8.57;3.30;;;20.90;99.90;;;;;;2128401;27;20454;-70
2022/07/26 04:17:22;;;;;;;10.60;3.45;;;20.80;99.90;;;;;;2129773;27;20138;-70
2022/07/26 04:18:22;;;;;;;10.02;3.60;;;20.80;99.90;;;;;;2130389;27;20102;-70
2022/07/26 04:19:23;;;;;;;10.73;3.70;;;20.80;99.90;;;;;;2127920;27;20027;-70
2022/07/26 04:20:23;;;;;;;10.27;3.65;;;20.80;99.90;;;;;;2124691;27;20058;-70
2022/07/26 04:21:24;;;;;;;9.23;3.22;;;20.80;99.90;;;;;;2128976;27;20018;-70
2022/07/26 04:22:25;;;;;;;8.50;3.33;;;20.80;99.90;;;;;;2126820;27;20023;-70
2022/07/26 04:23:25;;;;;;;10.48;3.75;;;20.80;99.90;;;;;;2128927;27;20054;-70
2022/07/26 04:24:26;;;;;;;12.10;3.78;;;20.70;99.90;;;;;;2128829;27;20115;-70
2022/07/26 04:25:26;;;;;;;9.65;3.72;;;20.80;99.90;;;;;;2129008;27;20030;-70
2022/07/26 04:26:28;;;;;;;10.43;4.20;;;20.70;99.90;;;;;;2118034;27;20019;-70
2022/07/26 04:27:29;;;;;;;9.80;3.40;;;20.70;99.90;;;;;;2119293;27;20049;-70
2022/07/26 04:28:30;;;;;;;6.70;3.50;;;20.70;99.90;;;;;;2130738;27;20200;-70
2022/07/26 04:29:31;;;;;;;6.55;3.40;;;20.70;99.90;;;;;;2127871;27;20023;-70
2022/07/26 04:30:31;;;;;;;8.25;3.45;;;20.70;99.90;;;;;;2128890;27;20408;-70
2022/07/26 04:31:32;;;;;;;11.88;3.33;;;20.70;99.90;;;;;;2128082;27;20021;-70
2022/07/26 04:32:33;;;;;;;6.25;3.10;;;20.70;99.90;;;;;;2126602;27;20029;-70
2022/07/26 04:33:33;;;;;;;8.88;3.75;;;20.70;99.90;;;;;;2128797;27;20055;-70
2022/07/26 04:34:34;;;;;;;10.10;3.60;;;20.70;99.90;;;;;;2124854;27;20394;-70
2022/07/26 04:35:35;;;;;;;9.27;3.40;;;20.70;99.90;;;;;;2128222;27;20011;-70
2022/07/26 04:36:35;;;;;;;12.32;4.30;;;20.70;99.90;;;;;;2126008;27;20014;-70
2022/07/26 04:37:43;;;;;;;10.45;3.60;;;20.70;99.90;;;;;;2125007;27;20061;-70
2022/07/26 04:38:44;;;;;;;10.32;3.30;;;20.70;99.90;;;;;;2127606;27;20050;-70
2022/07/26 04:39:44;;;;;;;10.88;4.07;;;20.70;99.90;;;;;;2127766;27;20507;-70
2022/07/26 04:40:45;;;;;;;12.60;3.92;;;20.70;99.90;;;;;;2129326;27;20033;-69
2022/07/26 04:41:45;;;;;;;10.57;3.70;;;20.70;99.90;;;;;;2126655;27;20023;-69
2022/07/26 04:42:46;;;;;;;10.23;3.40;;;20.70;99.90;;;;;;2127079;27;20072;-70
2022/07/26 04:43:47;;;;;;;10.93;3.85;;;20.70;99.90;;;;;;2129125;27;20496;-70
2022/07/26 04:44:48;;;;;;;11.18;3.60;;;20.70;99.90;;;;;;2129040;27;20019;-70
2022/07/26 04:45:48;;;;;;;8.07;3.08;;;20.70;99.90;;;;;;2129822;27;20033;-70
2022/07/26 04:46:49;;;;;;;8.52;3.05;;;20.70;99.90;;;;;;2129329;27;20046;-70
2022/07/26 04:47:50;;;;;;;10.07;3.60;;;20.70;99.90;;;;;;2128917;27;20062;-70
2022/07/26 04:48:51;;;;;;;8.50;3.40;;;20.70;99.90;;;;;;2127131;27;20358;-69
2022/07/26 04:49:51;;;;;;;10.13;3.53;;;20.70;99.90;;;;;;2126701;27;20093;-69
2022/07/26 04:50:52;;;;;;;9.18;3.42;;;20.70;99.90;;;;;;2126356;27;20103;-69
2022/07/26 04:51:53;;;;;;;6.60;3.13;;;20.70;99.90;;;;;;2129961;27;20023;-69
2022/07/26 04:52:54;;;;;;;7.97;2.78;;;20.70;99.90;;;;;;2129088;27;20010;-69
2022/07/26 04:53:54;;;;;;;8.93;3.22;;;20.70;99.90;;;;;;2128387;27;20046;-69
2022/07/26 04:54:55;;;;;;;6.90;2.88;;;20.70;99.90;;;;;;2127762;27;20044;-69
2022/07/26 04:55:56;;;;;;;8.35;3.42;;;20.70;99.90;;;;;;2127647;27;20700;-69
2022/07/26 04:56:56;;;;;;;10.00;3.33;;;20.80;99.90;;;;;;2117869;27;20076;-69
2022/07/26 04:57:57;;;;;;;7.15;2.92;;;20.70;99.90;;;;;;2120635;27;20115;-69
2022/07/26 04:58:58;;;;;;;9.40;3.35;;;20.80;99.90;;;;;;2125951;27;20015;-69
2022/07/26 04:59:58;;;;;;;8.93;3.13;;;20.80;99.90;;;;;;2127038;27;20058;-69
2022/07/26 05:00:59;;;;;;;8.23;2.75;;;20.70;99.90;;;;;;2128274;27;20423;-69
2022/07/26 05:02:00;;;;;;;10.07;3.17;;;20.70;99.90;;;;;;2120031;27;20023;-69
2022/07/26 05:03:01;;;;;;;9.68;3.63;;;20.70;99.90;;;;;;2121426;27;20174;-69
2022/07/26 05:04:02;;;;;;;8.32;3.00;;;20.70;99.90;;;;;;2126860;27;20038;-69
2022/07/26 05:05:04;;;;;;;6.63;3.00;;;20.70;99.90;;;;;;2124418;27;20030;-69
2022/07/26 05:06:04;;;;;;;10.75;2.92;;;20.70;99.90;;;;;;2128165;27;20075;-69
2022/07/26 05:07:05;;;;;;;7.68;2.90;;;20.70;99.90;;;;;;2125884;27;20027;-69
2022/07/26 05:08:06;;;;;;;6.60;2.78;;;20.70;99.90;;;;;;2128537;27;20031;-69
2022/07/26 05:09:07;;;;;;;7.38;3.03;;;20.70;99.90;;;;;;2129428;27;20427;-69
2022/07/26 05:10:09;;;;;;;8.75;3.15;;;20.70;99.90;;;;;;2129544;27;20095;-69
2022/07/26 05:11:09;;;;;;;5.72;2.88;;;20.70;99.90;;;;;;2126090;27;20049;-69
2022/07/26 05:12:10;;;;;;;9.05;3.58;;;20.70;99.90;;;;;;2129484;27;20015;-69
2022/07/26 05:13:11;;;;;;;9.70;3.28;;;20.70;99.90;;;;;;2127842;27;20019;-69
2022/07/26 05:14:11;;;;;;;8.85;3.00;;;20.70;99.90;;;;;;2127304;27;20011;-69
2022/07/26 05:15:12;;;;;;;7.13;2.97;;;20.70;99.90;;;;;;2128289;27;20504;-69
2022/07/26 05:16:13;;;;;;;9.00;3.22;;;20.70;99.90;;;;;;2127003;27;20129;-69
2022/07/26 05:17:13;;;;;;;9.35;3.25;;;20.70;99.90;;;;;;2128778;27;20020;-69
2022/07/26 05:18:14;;;;;;;10.50;3.92;;;20.70;99.90;;;;;;2129458;27;20038;-69
2022/07/26 05:19:15;;;;;;;9.10;3.33;;;20.70;99.90;;;;;;2126862;27;20470;-69
2022/07/26 05:20:16;;;;;;;9.25;3.33;;;20.70;99.90;;;;;;2128462;27;20038;-69